Terminal Aerodrome Forecast
Issued by NWS St Louis, MO

Home | Current Version | Previous Version | Text Only | Print | Product List | Glossary On
Versions: 1 2 3 4 5 6 7 8 9 10 11 12 13 14 15 16 17 18 19 20 21 22 23 24 25 26 27 28
000
FTUS43 KLSX 280300 AAA
TAFSTL
TAF AMD
KSTL 280308Z 2803/2906 10008KT P6SM -RA BKN100
     FM280400 05005KT P6SM SCT100 BKN250
     FM280800 10005KT P6SM SCT100 BKN250
      TEMPO 2808/2812 4SM BR
     FM281700 14008KT P6SM SCT040 BKN250=

USA.gov is the U.S. government's official web portal to all federal, state and local government web resources and services.